sensor_id;sensor_type;location;lat;lon;timestamp;temperature;humidity
9847;DHT22;68671;50.084;8.794;2023-05-17T00:01:11;14.30;97.80
9847;DHT22;68671;50.084;8.794;2023-05-17T00:03:38;14.30;98.00
9847;DHT22;68671;50.084;8.794;2023-05-17T00:06:06;14.30;98.20
9847;DHT22;68671;50.084;8.794;2023-05-17T00:08:33;14.30;98.30
9847;DHT22;68671;50.084;8.794;2023-05-17T00:10:59;14.20;98.50
9847;DHT22;68671;50.084;8.794;2023-05-17T00:13:26;14.20;98.70
9847;DHT22;68671;50.084;8.794;2023-05-17T00:15:55;14.20;99.00
9847;DHT22;68671;50.084;8.794;2023-05-17T00:18:22;14.20;99.10
9847;DHT22;68671;50.084;8.794;2023-05-17T00:20:49;14.10;99.20
9847;DHT22;68671;50.084;8.794;2023-05-17T00:23:16;14.10;99.40
9847;DHT22;68671;50.084;8.794;2023-05-17T00:25:43;14.10;99.70
9847;DHT22;68671;50.084;8.794;2023-05-17T00:28:11;14.00;99.90
9847;DHT22;68671;50.084;8.794;2023-05-17T00:30:38;14.00;99.90
9847;DHT22;68671;50.084;8.794;2023-05-17T00:33:06;14.00;99.90
9847;DHT22;68671;50.084;8.794;2023-05-17T00:35:33;14.00;99.90
9847;DHT22;68671;50.084;8.794;2023-05-17T00:38:00;13.90;99.90
9847;DHT22;68671;50.084;8.794;2023-05-17T00:40:27;13.90;99.90
9847;DHT22;68671;50.084;8.794;2023-05-17T00:42:54;13.90;99.90
9847;DHT22;68671;50.084;8.794;2023-05-17T00:45:21;13.90;99.90
9847;DHT22;68671;50.084;8.794;2023-05-17T00:47:48;13.80;99.90
9847;DHT22;68671;50.084;8.794;2023-05-17T00:50:18;13.80;99.90
9847;DHT22;68671;50.084;8.794;2023-05-17T00:52:45;13.80;99.90
9847;DHT22;68671;50.084;8.794;2023-05-17T00:55:13;13.70;99.90
9847;DHT22;68671;50.084;8.794;2023-05-17T00:57:40;13.70;99.90
9847;DHT22;68671;50.084;8.794;2023-05-17T01:00:08;13.70;99.90
9847;DHT22;68671;50.084;8.794;2023-05-17T01:02:35;13.70;99.90
9847;DHT22;68671;50.084;8.794;2023-05-17T01:05:02;13.60;99.90
9847;DHT22;68671;50.084;8.794;2023-05-17T01:07:31;13.60;99.90
9847;DHT22;68671;50.084;8.794;2023-05-17T01:09:58;13.60;99.90
9847;DHT22;68671;50.084;8.794;2023-05-17T01:12:35;13.50;99.90
9847;DHT22;68671;50.084;8.794;2023-05-17T01:15:10;13.60;99.90
9847;DHT22;68671;50.084;8.794;2023-05-17T01:17:44;13.50;99.90
9847;DHT22;68671;50.084;8.794;2023-05-17T01:20:18;13.50;99.90
9847;DHT22;68671;50.084;8.794;2023-05-17T01:22:52;13.50;99.90
9847;DHT22;68671;50.084;8.794;2023-05-17T01:25:28;13.40;99.90
9847;DHT22;68671;50.084;8.794;2023-05-17T01:28:03;13.50;99.90
9847;DHT22;68671;50.084;8.794;2023-05-17T01:30:31;13.40;99.90
9847;DHT22;68671;50.084;8.794;2023-05-17T01:33:00;13.40;99.90
9847;DHT22;68671;50.084;8.794;2023-05-17T01:35:28;13.40;99.90
9847;DHT22;68671;50.084;8.794;2023-05-17T01:37:55;13.40;99.90
9847;DHT22;68671;50.084;8.794;2023-05-17T01:40:24;13.40;99.90
9847;DHT22;68671;50.084;8.794;2023-05-17T01:42:55;13.40;99.90
9847;DHT22;68671;50.084;8.794;2023-05-17T01:45:29;13.30;99.90
9847;DHT22;68671;50.084;8.794;2023-05-17T01:48:05;13.30;99.90
9847;DHT22;68671;50.084;8.794;2023-05-17T01:50:35;13.30;99.90
9847;DHT22;68671;50.084;8.794;2023-05-17T01:53:06;13.30;99.90
9847;DHT22;68671;50.084;8.794;2023-05-17T01:55:40;13.30;99.90
9847;DHT22;68671;50.084;8.794;2023-05-17T01:58:10;13.30;99.90
9847;DHT22;68671;50.084;8.794;2023-05-17T02:00:41;13.20;99.90
9847;DHT22;68671;50.084;8.794;2023-05-17T02:03:12;13.20;99.90
9847;DHT22;68671;50.084;8.794;2023-05-17T02:05:39;13.20;99.90
9847;DHT22;68671;50.084;8.794;2023-05-17T02:08:06;13.20;99.90
9847;DHT22;68671;50.084;8.794;2023-05-17T02:10:33;13.20;99.90
9847;DHT22;68671;50.084;8.794;2023-05-17T02:13:00;13.20;99.90
9847;DHT22;68671;50.084;8.794;2023-05-17T02:15:27;13.20;99.90
9847;DHT22;68671;50.084;8.794;2023-05-17T02:17:56;13.20;99.90
9847;DHT22;68671;50.084;8.794;2023-05-17T02:20:23;13.20;99.90
9847;DHT22;68671;50.084;8.794;2023-05-17T02:22:50;13.20;99.90
9847;DHT22;68671;50.084;8.794;2023-05-17T02:25:17;13.20;99.90
9847;DHT22;68671;50.084;8.794;2023-05-17T02:27:44;13.20;99.90
9847;DHT22;68671;50.084;8.794;2023-05-17T02:30:11;13.10;99.90
9847;DHT22;68671;50.084;8.794;2023-05-17T02:32:41;13.20;99.90
9847;DHT22;68671;50.084;8.794;2023-05-17T02:35:10;13.20;99.90
9847;DHT22;68671;50.084;8.794;2023-05-17T02:37:37;13.10;99.90
9847;DHT22;68671;50.084;8.794;2023-05-17T02:40:05;13.20;99.90
9847;DHT22;68671;50.084;8.794;2023-05-17T02:42:34;13.10;99.90
9847;DHT22;68671;50.084;8.794;2023-05-17T02:45:01;13.10;99.90
9847;DHT22;68671;50.084;8.794;2023-05-17T02:47:27;13.10;99.90
9847;DHT22;68671;50.084;8.794;2023-05-17T02:49:55;13.10;99.90
9847;DHT22;68671;50.084;8.794;2023-05-17T02:52:23;13.10;99.90
9847;DHT22;68671;50.084;8.794;2023-05-17T02:54:50;13.00;99.90
9847;DHT22;68671;50.084;8.794;2023-05-17T02:57:17;13.00;99.90
9847;DHT22;68671;50.084;8.794;2023-05-17T02:59:44;13.10;99.90
9847;DHT22;68671;50.084;8.794;2023-05-17T03:02:11;13.10;99.90
9847;DHT22;68671;50.084;8.794;2023-05-17T03:04:38;13.10;99.90
9847;DHT22;68671;50.084;8.794;2023-05-17T03:07:06;13.10;99.90
9847;DHT22;68671;50.084;8.794;2023-05-17T03:09:34;13.10;99.90
9847;DHT22;68671;50.084;8.794;2023-05-17T03:12:01;13.10;99.90
9847;DHT22;68671;50.084;8.794;2023-05-17T03:14:28;13.20;99.90
9847;DHT22;68671;50.084;8.794;2023-05-17T03:16:55;13.20;99.90
9847;DHT22;68671;50.084;8.794;2023-05-17T03:19:22;13.20;99.90
9847;DHT22;68671;50.084;8.794;2023-05-17T03:21:49;13.20;99.90
9847;DHT22;68671;50.084;8.794;2023-05-17T03:24:16;13.30;99.90
9847;DHT22;68671;50.084;8.794;2023-05-17T03:26:45;13.30;99.90
9847;DHT22;68671;50.084;8.794;2023-05-17T03:29:11;13.30;99.90
9847;DHT22;68671;50.084;8.794;2023-05-17T03:31:38;13.40;99.90
9847;DHT22;68671;50.084;8.794;2023-05-17T03:34:06;13.40;99.90
9847;DHT22;68671;50.084;8.794;2023-05-17T03:36:33;13.40;99.90
9847;DHT22;68671;50.084;8.794;2023-05-17T03:39:00;13.50;99.90
9847;DHT22;68671;50.084;8.794;2023-05-17T03:41:27;13.40;99.90
9847;DHT22;68671;50.084;8.794;2023-05-17T03:43:55;13.50;99.90
9847;DHT22;68671;50.084;8.794;2023-05-17T03:46:22;13.50;99.90
9847;DHT22;68671;50.084;8.794;2023-05-17T03:48:50;13.60;99.90
9847;DHT22;68671;50.084;8.794;2023-05-17T03:51:17;13.60;99.90
9847;DHT22;68671;50.084;8.794;2023-05-17T03:53:44;13.60;99.90
9847;DHT22;68671;50.084;8.794;2023-05-17T03:56:11;13.70;99.90
9847;DHT22;68671;50.084;8.794;2023-05-17T03:58:37;13.70;99.90
9847;DHT22;68671;50.084;8.794;2023-05-17T04:01:06;13.70;99.90
9847;DHT22;68671;50.084;8.794;2023-05-17T04:03:33;13.70;99.90
9847;DHT22;68671;50.084;8.794;2023-05-17T04:06:03;13.80;99.90
9847;DHT22;68671;50.084;8.794;2023-05-17T04:08:31;13.80;99.90
9847;DHT22;68671;50.084;8.794;2023-05-17T04:10:58;13.80;99.90
9847;DHT22;68671;50.084;8.794;2023-05-17T04:13:30;13.80;99.90
9847;DHT22;68671;50.084;8.794;2023-05-17T04:15:57;13.80;99.90
9847;DHT22;68671;50.084;8.794;2023-05-17T04:18:25;13.80;99.90
9847;DHT22;68671;50.084;8.794;2023-05-17T04:20:54;13.90;99.90
9847;DHT22;68671;50.084;8.794;2023-05-17T04:23:21;13.90;99.90
9847;DHT22;68671;50.084;8.794;2023-05-17T04:25:47;13.90;99.90
9847;DHT22;68671;50.084;8.794;2023-05-17T04:28:22;13.90;99.90
9847;DHT22;68671;50.084;8.794;2023-05-17T04:31:09;13.90;99.90
9847;DHT22;68671;50.084;8.794;2023-05-17T04:33:51;13.90;99.90
9847;DHT22;68671;50.084;8.794;2023-05-17T05:27:50;18.70;99.90
9847;DHT22;68671;50.084;8.794;2023-05-17T05:30:29;19.10;99.90
9847;DHT22;68671;50.084;8.794;2023-05-17T05:33:07;19.40;99.90
9847;DHT22;68671;50.084;8.794;2023-05-17T05:38:55;20.10;99.90
9847;DHT22;68671;50.084;8.794;2023-05-17T05:41:55;20.60;99.90
9847;DHT22;68671;50.084;8.794;2023-05-17T05:44:37;21.00;99.90
9847;DHT22;68671;50.084;8.794;2023-05-17T05:47:21;21.50;98.10
9847;DHT22;68671;50.084;8.794;2023-05-17T05:57:08;22.70;94.00
9847;DHT22;68671;50.084;8.794;2023-05-17T05:59:36;23.00;92.10
9847;DHT22;68671;50.084;8.794;2023-05-17T06:02:06;22.90;90.90
9847;DHT22;68671;50.084;8.794;2023-05-17T06:04:34;23.00;90.50
9847;DHT22;68671;50.084;8.794;2023-05-17T06:07:01;23.10;89.30
9847;DHT22;68671;50.084;8.794;2023-05-17T06:09:28;23.10;86.60
9847;DHT22;68671;50.084;8.794;2023-05-17T06:11:55;23.00;84.80
9847;DHT22;68671;50.084;8.794;2023-05-17T06:14:22;22.90;84.00
9847;DHT22;68671;50.084;8.794;2023-05-17T06:16:55;23.00;84.00
9847;DHT22;68671;50.084;8.794;2023-05-17T06:19:23;23.10;84.10
9847;DHT22;68671;50.084;8.794;2023-05-17T06:21:49;23.00;79.60
9847;DHT22;68671;50.084;8.794;2023-05-17T06:24:16;22.90;79.10
9847;DHT22;68671;50.084;8.794;2023-05-17T06:26:43;22.60;75.90
9847;DHT22;68671;50.084;8.794;2023-05-17T06:29:11;22.30;75.10
9847;DHT22;68671;50.084;8.794;2023-05-17T06:31:38;21.80;74.20
9847;DHT22;68671;50.084;8.794;2023-05-17T06:34:07;21.30;75.00
9847;DHT22;68671;50.084;8.794;2023-05-17T06:36:34;21.00;76.30
9847;DHT22;68671;50.084;8.794;2023-05-17T06:39:01;20.90;78.70
9847;DHT22;68671;50.084;8.794;2023-05-17T06:41:30;20.80;78.00
9847;DHT22;68671;50.084;8.794;2023-05-17T06:43:57;20.80;78.50
9847;DHT22;68671;50.084;8.794;2023-05-17T06:46:24;20.90;80.80
9847;DHT22;68671;50.084;8.794;2023-05-17T06:48:51;21.10;82.50
9847;DHT22;68671;50.084;8.794;2023-05-17T06:51:19;21.50;84.90
9847;DHT22;68671;50.084;8.794;2023-05-17T06:53:46;22.10;83.80
9847;DHT22;68671;50.084;8.794;2023-05-17T06:56:14;22.50;82.80
9847;DHT22;68671;50.084;8.794;2023-05-17T06:58:41;23.00;84.40
9847;DHT22;68671;50.084;8.794;2023-05-17T07:01:08;23.70;83.30
9847;DHT22;68671;50.084;8.794;2023-05-17T07:03:35;24.10;78.20
9847;DHT22;68671;50.084;8.794;2023-05-17T07:06:02;24.20;73.30
9847;DHT22;68671;50.084;8.794;2023-05-17T07:08:31;23.80;69.90
9847;DHT22;68671;50.084;8.794;2023-05-17T07:10:58;23.40;68.20
9847;DHT22;68671;50.084;8.794;2023-05-17T07:13:25;22.90;68.70
9847;DHT22;68671;50.084;8.794;2023-05-17T07:15:52;22.70;70.00
9847;DHT22;68671;50.084;8.794;2023-05-17T07:18:20;22.40;69.40
9847;DHT22;68671;50.084;8.794;2023-05-17T07:20:46;22.20;68.50
9847;DHT22;68671;50.084;8.794;2023-05-17T07:23:13;21.90;69.00
9847;DHT22;68671;50.084;8.794;2023-05-17T07:25:42;21.60;69.00
9847;DHT22;68671;50.084;8.794;2023-05-17T07:28:09;21.30;69.10
9847;DHT22;68671;50.084;8.794;2023-05-17T07:30:36;21.00;69.60
9847;DHT22;68671;50.084;8.794;2023-05-17T07:33:03;20.80;70.10
9847;DHT22;68671;50.084;8.794;2023-05-17T07:35:30;20.60;69.90
9847;DHT22;68671;50.084;8.794;2023-05-17T07:37:57;20.40;69.90
9847;DHT22;68671;50.084;8.794;2023-05-17T07:40:24;20.20;70.50
9847;DHT22;68671;50.084;8.794;2023-05-17T07:42:52;20.00;69.90
9847;DHT22;68671;50.084;8.794;2023-05-17T07:45:19;19.70;69.90
9847;DHT22;68671;50.084;8.794;2023-05-17T07:47:46;19.70;75.60
9847;DHT22;68671;50.084;8.794;2023-05-17T07:50:13;20.20;77.60
9847;DHT22;68671;50.084;8.794;2023-05-17T07:52:40;20.80;78.10
9847;DHT22;68671;50.084;8.794;2023-05-17T07:55:08;21.40;76.40
9847;DHT22;68671;50.084;8.794;2023-05-17T07:57:35;22.10;74.00
9847;DHT22;68671;50.084;8.794;2023-05-17T08:00:05;22.80;73.50
9847;DHT22;68671;50.084;8.794;2023-05-17T08:02:36;23.70;72.60
9847;DHT22;68671;50.084;8.794;2023-05-17T08:05:03;24.30;68.80
9847;DHT22;68671;50.084;8.794;2023-05-17T08:07:30;24.60;65.10
9847;DHT22;68671;50.084;8.794;2023-05-17T08:09:57;24.50;62.70
9847;DHT22;68671;50.084;8.794;2023-05-17T08:12:47;24.40;60.40
9847;DHT22;68671;50.084;8.794;2023-05-17T08:15:20;24.30;59.60
9847;DHT22;68671;50.084;8.794;2023-05-17T08:17:48;24.20;59.40
9847;DHT22;68671;50.084;8.794;2023-05-17T08:20:15;24.10;58.70
9847;DHT22;68671;50.084;8.794;2023-05-17T08:22:42;24.20;59.40
9847;DHT22;68671;50.084;8.794;2023-05-17T08:25:09;24.30;58.50
9847;DHT22;68671;50.084;8.794;2023-05-17T08:27:36;24.00;56.40
9847;DHT22;68671;50.084;8.794;2023-05-17T08:30:05;23.30;55.00
9847;DHT22;68671;50.084;8.794;2023-05-17T08:32:33;22.70;55.60
9847;DHT22;68671;50.084;8.794;2023-05-17T08:35:01;22.30;56.20
9847;DHT22;68671;50.084;8.794;2023-05-17T08:37:31;22.10;56.70
9847;DHT22;68671;50.084;8.794;2023-05-17T08:39:58;22.00;57.30
9847;DHT22;68671;50.084;8.794;2023-05-17T08:42:26;21.90;57.40
9847;DHT22;68671;50.084;8.794;2023-05-17T08:44:54;21.90;57.60
9847;DHT22;68671;50.084;8.794;2023-05-17T08:47:21;21.80;57.50
9847;DHT22;68671;50.084;8.794;2023-05-17T08:49:56;21.70;57.40
9847;DHT22;68671;50.084;8.794;2023-05-17T08:52:28;21.70;57.30
9847;DHT22;68671;50.084;8.794;2023-05-17T08:54:56;21.60;56.80
9847;DHT22;68671;50.084;8.794;2023-05-17T08:57:23;21.50;56.40
9847;DHT22;68671;50.084;8.794;2023-05-17T08:59:53;21.30;56.00
9847;DHT22;68671;50.084;8.794;2023-05-17T09:02:22;21.20;56.90
9847;DHT22;68671;50.084;8.794;2023-05-17T09:04:49;21.00;56.60
9847;DHT22;68671;50.084;8.794;2023-05-17T09:07:21;20.90;57.20
9847;DHT22;68671;50.084;8.794;2023-05-17T09:09:50;20.80;57.60
9847;DHT22;68671;50.084;8.794;2023-05-17T09:12:18;20.80;57.10
9847;DHT22;68671;50.084;8.794;2023-05-17T09:14:45;20.80;57.10
9847;DHT22;68671;50.084;8.794;2023-05-17T09:17:13;20.70;57.40
9847;DHT22;68671;50.084;8.794;2023-05-17T09:19:43;20.70;57.20
9847;DHT22;68671;50.084;8.794;2023-05-17T09:22:12;20.70;56.90
9847;DHT22;68671;50.084;8.794;2023-05-17T09:24:42;20.20;56.50
9847;DHT22;68671;50.084;8.794;2023-05-17T09:27:13;20.00;57.60
9847;DHT22;68671;50.084;8.794;2023-05-17T09:29:40;19.90;57.90
9847;DHT22;68671;50.084;8.794;2023-05-17T09:32:14;19.60;57.90
9847;DHT22;68671;50.084;8.794;2023-05-17T09:34:42;19.40;58.60
9847;DHT22;68671;50.084;8.794;2023-05-17T09:37:14;19.20;58.40
9847;DHT22;68671;50.084;8.794;2023-05-17T09:39:43;19.20;57.70
9847;DHT22;68671;50.084;8.794;2023-05-17T09:42:11;19.20;57.40
9847;DHT22;68671;50.084;8.794;2023-05-17T09:44:48;18.90;57.10
9847;DHT22;68671;50.084;8.794;2023-05-17T09:47:24;18.70;57.30
9847;DHT22;68671;50.084;8.794;2023-05-17T09:49:54;18.60;59.50
9847;DHT22;68671;50.084;8.794;2023-05-17T09:52:22;18.70;60.00
9847;DHT22;68671;50.084;8.794;2023-05-17T09:54:56;18.80;60.00
9847;DHT22;68671;50.084;8.794;2023-05-17T09:57:25;19.00;59.70
9847;DHT22;68671;50.084;8.794;2023-05-17T09:59:54;19.10;59.90
9847;DHT22;68671;50.084;8.794;2023-05-17T10:05:00;19.00;59.50
9847;DHT22;68671;50.084;8.794;2023-05-17T10:43:53;18.80;60.50
9847;DHT22;68671;50.084;8.794;2023-05-17T10:46:22;18.90;60.10
9847;DHT22;68671;50.084;8.794;2023-05-17T10:48:50;19.00;59.80
9847;DHT22;68671;50.084;8.794;2023-05-17T10:51:21;18.90;59.30
9847;DHT22;68671;50.084;8.794;2023-05-17T10:54:07;18.70;59.10
9847;DHT22;68671;50.084;8.794;2023-05-17T10:56:38;18.40;59.70
9847;DHT22;68671;50.084;8.794;2023-05-17T10:59:18;18.40;60.00
9847;DHT22;68671;50.084;8.794;2023-05-17T11:01:59;18.30;59.30
9847;DHT22;68671;50.084;8.794;2023-05-17T11:04:32;18.20;59.00
9847;DHT22;68671;50.084;8.794;2023-05-17T11:07:24;18.20;58.20
9847;DHT22;68671;50.084;8.794;2023-05-17T11:09:54;18.10;58.50
9847;DHT22;68671;50.084;8.794;2023-05-17T11:12:33;18.10;58.70
9847;DHT22;68671;50.084;8.794;2023-05-17T11:15:04;18.10;59.00
9847;DHT22;68671;50.084;8.794;2023-05-17T11:17:45;18.00;58.60
9847;DHT22;68671;50.084;8.794;2023-05-17T11:20:30;18.00;59.70
9847;DHT22;68671;50.084;8.794;2023-05-17T11:22:58;18.00;60.30
9847;DHT22;68671;50.084;8.794;2023-05-17T11:25:27;18.10;60.20
9847;DHT22;68671;50.084;8.794;2023-05-17T11:27:54;18.30;59.40
9847;DHT22;68671;50.084;8.794;2023-05-17T11:30:25;18.30;58.80
9847;DHT22;68671;50.084;8.794;2023-05-17T11:32:56;18.30;58.00
9847;DHT22;68671;50.084;8.794;2023-05-17T11:35:26;18.40;57.40
9847;DHT22;68671;50.084;8.794;2023-05-17T11:38:11;18.50;57.00
9847;DHT22;68671;50.084;8.794;2023-05-17T11:40:39;18.50;57.00
9847;DHT22;68671;50.084;8.794;2023-05-17T11:43:14;18.50;57.00
9847;DHT22;68671;50.084;8.794;2023-05-17T11:45:44;18.60;57.00
9847;DHT22;68671;50.084;8.794;2023-05-17T11:48:12;18.70;56.70
9847;DHT22;68671;50.084;8.794;2023-05-17T11:50:39;18.50;56.20
9847;DHT22;68671;50.084;8.794;2023-05-17T11:53:07;18.30;57.00
9847;DHT22;68671;50.084;8.794;2023-05-17T11:55:37;18.30;57.40
9847;DHT22;68671;50.084;8.794;2023-05-17T11:58:06;18.20;57.90
9847;DHT22;68671;50.084;8.794;2023-05-17T12:00:34;18.20;58.20
9847;DHT22;68671;50.084;8.794;2023-05-17T12:03:16;18.30;58.10
9847;DHT22;68671;50.084;8.794;2023-05-17T12:05:44;18.30;57.40
9847;DHT22;68671;50.084;8.794;2023-05-17T12:08:13;18.20;57.10
9847;DHT22;68671;50.084;8.794;2023-05-17T12:10:45;18.10;57.40
9847;DHT22;68671;50.084;8.794;2023-05-17T12:13:13;18.20;57.40
9847;DHT22;68671;50.084;8.794;2023-05-17T12:15:44;18.20;57.40
9847;DHT22;68671;50.084;8.794;2023-05-17T12:18:11;18.30;57.70
9847;DHT22;68671;50.084;8.794;2023-05-17T12:20:54;18.40;57.60
9847;DHT22;68671;50.084;8.794;2023-05-17T12:23:31;18.40;57.60
9847;DHT22;68671;50.084;8.794;2023-05-17T12:26:03;18.40;57.70
9847;DHT22;68671;50.084;8.794;2023-05-17T12:28:30;18.30;57.70
9847;DHT22;68671;50.084;8.794;2023-05-17T12:30:57;18.30;58.00
9847;DHT22;68671;50.084;8.794;2023-05-17T12:33:32;18.40;58.00
9847;DHT22;68671;50.084;8.794;2023-05-17T12:36:02;18.40;57.90
9847;DHT22;68671;50.084;8.794;2023-05-17T12:38:30;18.40;58.00
9847;DHT22;68671;50.084;8.794;2023-05-17T12:41:01;18.40;57.60
9847;DHT22;68671;50.084;8.794;2023-05-17T12:43:29;18.50;57.00
9847;DHT22;68671;50.084;8.794;2023-05-17T12:46:03;18.60;56.90
9847;DHT22;68671;50.084;8.794;2023-05-17T12:48:32;18.70;56.80
9847;DHT22;68671;50.084;8.794;2023-05-17T12:51:06;18.70;57.00
9847;DHT22;68671;50.084;8.794;2023-05-17T12:53:34;18.80;57.50
9847;DHT22;68671;50.084;8.794;2023-05-17T12:56:02;19.00;57.60
9847;DHT22;68671;50.084;8.794;2023-05-17T12:58:29;19.10;57.40
9847;DHT22;68671;50.084;8.794;2023-05-17T13:00:58;19.20;56.80
9847;DHT22;68671;50.084;8.794;2023-05-17T13:03:25;19.20;56.10
9847;DHT22;68671;50.084;8.794;2023-05-17T13:06:03;19.10;55.90
9847;DHT22;68671;50.084;8.794;2023-05-17T13:08:32;18.90;57.60
9847;DHT22;68671;50.084;8.794;2023-05-17T13:11:10;19.00;57.40
9847;DHT22;68671;50.084;8.794;2023-05-17T13:13:38;19.00;57.10
9847;DHT22;68671;50.084;8.794;2023-05-17T13:16:05;19.00;56.90
9847;DHT22;68671;50.084;8.794;2023-05-17T13:18:49;19.10;56.50
9847;DHT22;68671;50.084;8.794;2023-05-17T13:21:17;19.20;56.40
9847;DHT22;68671;50.084;8.794;2023-05-17T13:23:49;19.30;56.50
9847;DHT22;68671;50.084;8.794;2023-05-17T13:26:17;19.50;56.70
9847;DHT22;68671;50.084;8.794;2023-05-17T13:28:44;19.40;56.10
9847;DHT22;68671;50.084;8.794;2023-05-17T13:31:11;19.20;55.40
9847;DHT22;68671;50.084;8.794;2023-05-17T13:33:38;18.80;55.30
9847;DHT22;68671;50.084;8.794;2023-05-17T13:36:05;18.60;55.60
9847;DHT22;68671;50.084;8.794;2023-05-17T13:38:32;18.40;55.80
9847;DHT22;68671;50.084;8.794;2023-05-17T13:41:01;18.30;56.30
9847;DHT22;68671;50.084;8.794;2023-05-17T13:43:28;18.30;56.60
9847;DHT22;68671;50.084;8.794;2023-05-17T13:45:57;18.30;56.60
9847;DHT22;68671;50.084;8.794;2023-05-17T13:48:25;18.30;56.50
9847;DHT22;68671;50.084;8.794;2023-05-17T13:50:52;18.30;56.30
9847;DHT22;68671;50.084;8.794;2023-05-17T13:53:19;18.10;56.30
9847;DHT22;68671;50.084;8.794;2023-05-17T13:55:46;17.90;56.70
9847;DHT22;68671;50.084;8.794;2023-05-17T13:58:16;17.80;57.30
9847;DHT22;68671;50.084;8.794;2023-05-17T14:00:45;17.90;57.60
9847;DHT22;68671;50.084;8.794;2023-05-17T14:03:12;18.00;57.70
9847;DHT22;68671;50.084;8.794;2023-05-17T14:05:39;18.00;57.60
9847;DHT22;68671;50.084;8.794;2023-05-17T14:08:07;18.00;57.30
9847;DHT22;68671;50.084;8.794;2023-05-17T14:10:34;18.10;57.50
9847;DHT22;68671;50.084;8.794;2023-05-17T14:13:01;18.30;57.60
9847;DHT22;68671;50.084;8.794;2023-05-17T14:15:30;18.30;57.20
9847;DHT22;68671;50.084;8.794;2023-05-17T14:18:02;18.20;56.50
9847;DHT22;68671;50.084;8.794;2023-05-17T14:20:29;18.10;56.00
9847;DHT22;68671;50.084;8.794;2023-05-17T14:22:56;17.90;55.90
9847;DHT22;68671;50.084;8.794;2023-05-17T14:25:23;17.70;55.90
9847;DHT22;68671;50.084;8.794;2023-05-17T14:27:50;17.60;56.30
9847;DHT22;68671;50.084;8.794;2023-05-17T14:30:18;17.40;56.40
9847;DHT22;68671;50.084;8.794;2023-05-17T14:32:46;17.30;56.90
9847;DHT22;68671;50.084;8.794;2023-05-17T14:35:14;17.40;57.60
9847;DHT22;68671;50.084;8.794;2023-05-17T14:37:41;17.60;57.90
9847;DHT22;68671;50.084;8.794;2023-05-17T14:40:09;17.70;57.30
9847;DHT22;68671;50.084;8.794;2023-05-17T14:42:36;17.80;57.50
9847;DHT22;68671;50.084;8.794;2023-05-17T14:45:04;18.00;56.70
9847;DHT22;68671;50.084;8.794;2023-05-17T14:47:31;18.10;56.70
9847;DHT22;68671;50.084;8.794;2023-05-17T14:50:00;18.10;56.30
9847;DHT22;68671;50.084;8.794;2023-05-17T14:52:27;18.20;56.60
9847;DHT22;68671;50.084;8.794;2023-05-17T14:54:55;18.20;56.60
9847;DHT22;68671;50.084;8.794;2023-05-17T14:57:22;18.20;56.30
9847;DHT22;68671;50.084;8.794;2023-05-17T14:59:49;18.00;55.90
9847;DHT22;68671;50.084;8.794;2023-05-17T15:02:16;17.90;55.90
9847;DHT22;68671;50.084;8.794;2023-05-17T15:04:44;17.80;55.90
9847;DHT22;68671;50.084;8.794;2023-05-17T15:07:13;17.60;56.00
9847;DHT22;68671;50.084;8.794;2023-05-17T15:09:40;17.50;56.40
9847;DHT22;68671;50.084;8.794;2023-05-17T15:12:08;17.40;56.70
9847;DHT22;68671;50.084;8.794;2023-05-17T15:14:35;17.50;57.10
9847;DHT22;68671;50.084;8.794;2023-05-17T15:17:02;17.50;57.00
9847;DHT22;68671;50.084;8.794;2023-05-17T15:19:30;17.50;57.00
9847;DHT22;68671;50.084;8.794;2023-05-17T15:21:57;17.50;57.20
9847;DHT22;68671;50.084;8.794;2023-05-17T15:24:27;17.50;57.10
9847;DHT22;68671;50.084;8.794;2023-05-17T15:26:55;17.40;56.70
9847;DHT22;68671;50.084;8.794;2023-05-17T15:29:22;17.40;56.80
9847;DHT22;68671;50.084;8.794;2023-05-17T15:31:49;17.30;56.80
9847;DHT22;68671;50.084;8.794;2023-05-17T15:34:16;17.30;56.80
9847;DHT22;68671;50.084;8.794;2023-05-17T15:36:43;17.40;56.80
9847;DHT22;68671;50.084;8.794;2023-05-17T15:39:10;17.40;57.10
9847;DHT22;68671;50.084;8.794;2023-05-17T15:41:38;17.60;57.20
9847;DHT22;68671;50.084;8.794;2023-05-17T15:44:05;17.60;57.10
9847;DHT22;68671;50.084;8.794;2023-05-17T15:46:33;17.70;57.20
9847;DHT22;68671;50.084;8.794;2023-05-17T15:49:00;17.60;57.10
9847;DHT22;68671;50.084;8.794;2023-05-17T15:51:27;17.50;57.60
9847;DHT22;68671;50.084;8.794;2023-05-17T15:53:54;17.60;58.10
9847;DHT22;68671;50.084;8.794;2023-05-17T15:56:21;17.50;58.00
9847;DHT22;68671;50.084;8.794;2023-05-17T15:58:50;17.40;58.10
9847;DHT22;68671;50.084;8.794;2023-05-17T16:01:17;17.40;58.30
9847;DHT22;68671;50.084;8.794;2023-05-17T16:03:44;17.30;58.60
9847;DHT22;68671;50.084;8.794;2023-05-17T16:06:11;17.30;58.70
9847;DHT22;68671;50.084;8.794;2023-05-17T16:08:38;17.20;58.60
9847;DHT22;68671;50.084;8.794;2023-05-17T16:11:05;17.10;58.60
9847;DHT22;68671;50.084;8.794;2023-05-17T16:13:32;17.10;58.80
9847;DHT22;68671;50.084;8.794;2023-05-17T16:16:01;17.00;58.90
9847;DHT22;68671;50.084;8.794;2023-05-17T16:18:28;17.10;59.80
9847;DHT22;68671;50.084;8.794;2023-05-17T16:20:57;17.10;58.70
9847;DHT22;68671;50.084;8.794;2023-05-17T16:23:24;17.00;58.80
9847;DHT22;68671;50.084;8.794;2023-05-17T16:25:52;16.90;59.10
9847;DHT22;68671;50.084;8.794;2023-05-17T16:28:20;16.90;59.10
9847;DHT22;68671;50.084;8.794;2023-05-17T16:30:48;16.80;59.00
9847;DHT22;68671;50.084;8.794;2023-05-17T16:33:16;16.70;59.10
9847;DHT22;68671;50.084;8.794;2023-05-17T16:35:46;16.60;59.10
9847;DHT22;68671;50.084;8.794;2023-05-17T16:38:13;16.50;59.90
9847;DHT22;68671;50.084;8.794;2023-05-17T16:40:40;16.50;59.60
9847;DHT22;68671;50.084;8.794;2023-05-17T16:43:07;16.50;59.90
9847;DHT22;68671;50.084;8.794;2023-05-17T16:45:34;16.50;60.40
9847;DHT22;68671;50.084;8.794;2023-05-17T16:48:01;16.60;60.50
9847;DHT22;68671;50.084;8.794;2023-05-17T16:50:30;16.90;60.80
9847;DHT22;68671;50.084;8.794;2023-05-17T16:52:57;16.90;60.40
9847;DHT22;68671;50.084;8.794;2023-05-17T16:55:24;16.90;60.30
9847;DHT22;68671;50.084;8.794;2023-05-17T16:57:51;16.90;60.50
9847;DHT22;68671;50.084;8.794;2023-05-17T17:00:18;17.00;60.20
9847;DHT22;68671;50.084;8.794;2023-05-17T17:02:46;17.00;59.90
9847;DHT22;68671;50.084;8.794;2023-05-17T17:05:13;16.90;60.20
9847;DHT22;68671;50.084;8.794;2023-05-17T17:07:42;16.90;60.10
9847;DHT22;68671;50.084;8.794;2023-05-17T17:10:10;16.80;60.20
9847;DHT22;68671;50.084;8.794;2023-05-17T17:12:46;16.70;60.30
9847;DHT22;68671;50.084;8.794;2023-05-17T17:15:15;16.70;60.30
9847;DHT22;68671;50.084;8.794;2023-05-17T17:17:42;16.60;60.00
9847;DHT22;68671;50.084;8.794;2023-05-17T17:20:11;16.60;60.00
9847;DHT22;68671;50.084;8.794;2023-05-17T17:22:43;16.50;59.80
9847;DHT22;68671;50.084;8.794;2023-05-17T17:25:14;16.50;60.20
9847;DHT22;68671;50.084;8.794;2023-05-17T17:27:41;16.50;60.20
9847;DHT22;68671;50.084;8.794;2023-05-17T17:30:14;16.50;60.00
9847;DHT22;68671;50.084;8.794;2023-05-17T17:32:52;16.40;59.70
9847;DHT22;68671;50.084;8.794;2023-05-17T17:35:19;16.30;59.70
9847;DHT22;68671;50.084;8.794;2023-05-17T17:37:51;16.30;59.90